Latest Weather Observations for Cowra

IDN60801

Issued at 11:02 pm EST Saturday 18 April 2015 (issued every 30 minutes, with the page automatically refreshed every 10 minutes)

About weather observations | Map of weather stations | Latest weather observations for NSW | Other Formats
Station Details ID: 065111 Name: COWRA AIRPORT AWS Lat: -33.84 Lon: 148.65 Height: 296.5 m
Data from the previous 72 hours. | See also: Recent months at Cowra
Date/Time
EST
Temp
°C
App
Temp
°C
Dew
Point
Rel
Hum
%
Delta-T
°C
Wind Press
QNH
hPa
Press
MSL
hPa
Rain
since 9 am
mm
Dir
 
Spd
km/h
Gust
km/h
Spd
kts
Gust
kts
18/11:00pm 16.3 16.2 16.1 99 0.1 NNW 11 13 6 7 1017.4 - 3.6
18/10:30pm 16.3 15.9 16.1 99 0.1 N 13 17 7 9 1017.3 - 3.6
18/10:00pm 16.6 16.2 16.3 98 0.2 NNW 13 19 7 10 1017.4 - 3.6
18/09:30pm 16.5 15.8 15.4 93 0.6 NNE 13 15 7 8 1016.6 - 3.6
18/09:00pm 16.7 17.0 15.9 95 0.5 N 9 11 5 6 1017.2 1017.1 3.6
18/08:30pm 16.7 17.4 16.2 97 0.3 N 7 11 4 6 1016.8 - 3.6
18/08:00pm 16.7 16.9 15.7 94 0.6 WNW 9 15 5 8 1016.4 - 3.6
18/07:30pm 17.3 15.7 16.0 92 0.8 WNW 19 24 10 13 1016.5 - 3.4
18/07:00pm 18.0 17.6 17.2 95 0.5 NW 15 19 8 10 1015.7 - 3.2
18/06:30pm 18.4 18.4 18.2 99 0.1 NNW 15 17 8 9 1015.4 - 3.2
18/06:00pm 18.4 18.8 18.1 98 0.2 NNW 13 15 7 8 1014.8 1014.6 3.0
18/05:30pm 18.5 18.5 18.0 97 0.3 NNW 15 20 8 11 1014.6 - 3.0
18/05:00pm 18.6 18.5 17.8 95 0.5 NNW 15 19 8 10 1014.3 - 3.0
18/04:30pm 18.7 15.9 17.4 92 0.8 NW 28 39 15 21 1014.4 - 2.6
18/04:00pm 20.1 18.0 16.3 79 2.3 WNW 22 32 12 17 1013.4 - 1.2
18/03:30pm 22.9 22.1 16.0 65 4.2 N 15 19 8 10 1013.2 - 0.0
18/03:00pm 23.4 21.5 15.7 62 4.7 N 20 24 11 13 1013.7 1013.4 0.0
18/02:30pm 23.7 21.7 15.5 60 5.0 NNW 20 30 11 16 1014.0 - 0.0
18/02:00pm 23.9 22.0 15.7 60 5.0 NNW 20 28 11 15 1014.4 - 0.0
18/01:30pm 23.2 21.6 16.0 64 4.4 NNW 19 28 10 15 1014.7 - 0.0
18/01:00pm 23.5 21.7 16.1 63 4.5 NNW 20 28 11 15 1015.1 - 0.0
18/12:30pm 23.2 23.4 16.7 67 4.0 NNW 11 15 6 8 1015.7 - 0.0
18/12:00pm 22.5 22.4 16.1 67 3.9 NNW 11 15 6 8 1016.4 1016.2 0.0
18/11:30am 22.6 21.1 16.2 67 3.9 NNW 19 26 10 14 1017.0 - 0.0
18/11:00am 22.4 20.7 15.7 66 4.1 N 19 24 10 13 1017.5 - 0.0
18/10:30am 22.0 19.6 15.4 66 4.0 N 22 33 12 18 1017.8 - 0.0
18/10:00am 22.0 19.7 15.8 68 3.8 NNW 22 30 12 16 1018.1 - 0.0
18/09:30am 21.8 19.4 15.4 67 3.9 NNW 22 30 12 16 1018.2 - 0.0
18/09:00am 20.7 18.7 15.5 72 3.1 N 20 28 11 15 1018.4 1018.1 4.2
18/08:30am 20.5 16.8 15.1 71 3.2 N 28 35 15 19 1018.1 - 4.2
18/08:00am 20.3 16.7 15.3 73 3.0 N 28 39 15 21 1018.0 - 4.2
18/07:30am 20.0 16.5 15.4 75 2.8 N 28 35 15 19 1017.7 - 4.2
18/07:00am 19.8 16.8 15.9 78 2.4 NNW 26 35 14 19 1017.4 - 4.2
18/06:30am 19.3 17.7 16.0 81 2.0 NNW 19 26 10 14 1017.0 - 4.2
18/06:00am 18.2 18.4 15.8 86 1.4 NW 9 13 5 7 1017.0 1016.7 4.2
18/05:30am 17.6 17.5 16.1 91 0.9 NW 11 13 6 7 1016.8 - 4.2
18/05:00am 17.3 17.1 15.8 91 0.9 NW 11 13 6 7 1016.6 - 4.2
18/04:30am 17.4 18.0 15.7 90 1.0 WNW 7 9 4 5 1016.6 - 4.2
18/04:00am 17.5 18.5 16.4 93 0.7 W 6 9 3 5 1016.5 - 4.2
18/03:30am 16.8 17.4 15.8 94 0.6 SW 7 9 4 5 1016.4 - 4.2
18/03:00am 16.8 19.0 16.6 99 0.1 CALM 0 0 0 0 1016.5 1016.2 4.2
18/02:30am 15.8 17.6 15.6 99 0.1 CALM 0 0 0 0 1016.7 - 4.2
18/02:00am 15.9 17.8 15.7 99 0.1 CALM 0 0 0 0 1016.9 - 4.2
18/01:30am 16.4 18.5 16.2 99 0.1 CALM 0 0 0 0 1017.1 - 4.2
18/01:00am 16.6 18.8 16.4 99 0.1 CALM 0 0 0 0 1017.3 - 4.2
18/12:30am 16.6 18.8 16.4 99 0.1 CALM 0 0 0 0 1017.6 - 4.2
18/12:00am 16.4 18.5 16.2 99 0.1 CALM 0 0 0 0 1018.2 1018.0 4.2
 
Date/Time
EST
Temp
°C
App
Temp
°C
Dew
Point
Rel
Hum
%
Delta-T
°C
Wind Press
QNH
hPa
Press
MSL
hPa
Rain
since 9 am
mm
Dir
 
Spd
km/h
Gust
km/h
Spd
kts
Gust
kts
17/11:30pm 16.2 18.2 16.0 99 0.1 CALM 0 0 0 0 1018.6 - 4.2
17/11:00pm 16.3 18.3 16.1 99 0.1 CALM 0 0 0 0 1018.8 - 4.2
17/10:30pm 16.9 19.1 16.4 97 0.3 CALM 0 0 0 0 1018.8 - 4.2
17/10:00pm 16.8 18.7 15.8 94 0.6 CALM 0 0 0 0 1019.3 - 4.2
17/09:30pm 16.8 18.9 16.2 96 0.4 CALM 0 0 0 0 1019.0 - 4.2
17/09:00pm 17.1 18.9 15.4 90 1.0 CALM 0 0 0 0 1019.0 1018.8 4.2
17/08:30pm 17.3 18.1 16.3 94 0.6 S 7 9 4 5 1019.2 - 4.2
17/08:00pm 17.5 17.6 16.5 94 0.6 S 11 13 6 7 1019.0 - 4.2
17/07:30pm 17.5 18.1 16.7 95 0.5 SSW 9 9 5 5 1018.9 - 4.2
17/07:00pm 17.6 18.1 16.6 94 0.6 S 9 11 5 6 1019.0 - 4.2
17/06:30pm 17.9 18.0 16.6 92 0.8 S 11 11 6 6 1019.0 - 4.2
17/06:00pm 18.1 18.2 16.4 90 1.0 S 11 13 6 7 1019.1 1018.9 4.2
17/05:30pm 18.4 18.6 16.7 90 1.0 S 11 11 6 6 1019.0 - 4.2
17/05:00pm 18.9 19.2 16.9 88 1.2 S 11 13 6 7 1019.2 - 4.2
17/04:30pm 19.3 19.5 16.7 85 1.6 SE 11 19 6 10 1019.4 - 4.2
17/04:00pm 18.9 18.1 17.0 89 1.2 ESE 17 24 9 13 1019.2 - 4.2
17/03:30pm 18.6 19.5 17.6 94 0.6 SE 9 15 5 8 1020.3 - 4.2
17/03:00pm 18.6 19.1 17.4 93 0.7 SE 11 15 6 8 1020.8 1020.7 4.0
17/02:30pm 18.5 18.7 16.8 90 1.0 SSE 11 15 6 8 1021.3 - 4.0
17/02:00pm 18.5 18.9 17.3 93 0.7 SSE 11 15 6 8 1021.6 - 4.0
17/01:30pm 18.3 19.2 17.5 95 0.5 S 9 13 5 7 1021.8 - 4.0
17/01:00pm 18.3 19.3 16.8 91 0.9 S 7 11 4 6 1022.4 - 4.0
17/12:30pm 18.3 20.4 18.0 98 0.2 ESE 4 11 2 6 1022.7 - 4.0
17/12:00pm 17.5 18.8 17.5 100 0.0 E 7 11 4 6 1023.4 1023.2 4.0
17/11:30am 17.0 18.1 17.0 100 0.0 E 7 11 4 6 1024.0 - 2.6
17/11:00am 16.7 18.6 16.7 100 0.0 ESE 2 9 1 5 1024.7 - 2.4
17/10:30am 16.3 17.1 16.3 100 0.0 E 7 9 4 5 1024.6 - 2.0
17/10:00am 15.7 16.3 15.7 100 0.0 NE 7 9 4 5 1025.1 - 2.0
17/09:30am 15.5 16.0 15.5 100 0.0 WNW 7 11 4 6 1025.7 - 1.2
17/09:00am 15.3 15.9 15.3 100 0.0 W 6 9 3 5 1025.5 1025.2 14.8
17/08:30am 15.3 16.3 15.3 100 0.0 W 4 9 2 5 1025.2 - 14.0
17/08:00am 15.0 16.6 14.8 99 0.1 CALM 0 0 0 0 1025.2 - 12.4
17/07:30am 14.9 14.7 14.7 99 0.1 ENE 9 13 5 7 1024.6 - 7.6
17/07:00am 14.9 15.1 14.7 99 0.1 SE 7 11 4 6 1024.4 - 7.2
17/06:30am 14.7 15.3 14.2 97 0.3 S 4 7 2 4 1024.6 - 5.8
17/06:00am 14.7 13.5 13.9 95 0.5 S 13 15 7 8 1023.9 1023.5 3.8
17/05:30am 14.6 12.0 13.1 91 0.8 SSW 19 26 10 14 1023.7 - 2.2
17/05:00am 15.3 13.4 13.1 87 1.2 SSE 15 20 8 11 1023.1 - 1.6
17/04:30am 15.5 13.3 13.3 87 1.2 S 17 20 9 11 1023.4 - 0.8
17/04:00am 15.7 13.5 13.2 85 1.4 S 17 19 9 10 1023.1 - 0.8
17/03:30am 16.6 14.2 12.6 77 2.2 S 17 20 9 11 1022.9 - 0.4
17/03:00am 17.8 15.0 12.5 71 3.0 S 19 24 10 13 1022.7 1022.5 0.0
17/02:30am 17.6 17.0 13.5 77 2.4 SSE 9 11 5 6 1022.6 - 0.0
17/02:00am 18.8 17.9 12.5 67 3.6 SSE 9 13 5 7 1022.6 - 0.0
17/01:30am 18.0 17.8 13.7 76 2.5 SW 7 13 4 7 1023.7 - 0.0
17/01:00am 18.2 19.4 13.9 76 2.5 CALM 0 6 0 3 1023.8 - 0.0
17/12:30am 18.5 19.4 12.9 70 3.2 CALM 0 0 0 0 1023.3 - 0.0
17/12:00am 18.5 19.4 12.9 70 3.2 CALM 0 7 0 4 1023.3 1023.1 0.0
 
Date/Time
EST
Temp
°C
App
Temp
°C
Dew
Point
Rel
Hum
%
Delta-T
°C
Wind Press
QNH
hPa
Press
MSL
hPa
Rain
since 9 am
mm
Dir
 
Spd
km/h
Gust
km/h
Spd
kts
Gust
kts
16/11:30pm 18.9 18.6 12.6 67 3.6 SSE 6 7 3 4 1023.2 - 0.0
16/11:00pm 19.5 18.6 12.7 65 3.9 ESE 9 13 5 7 1023.3 - 0.0
16/10:30pm 18.0 18.2 12.9 72 2.9 N 4 7 2 4 1023.1 - 0.0
16/10:00pm 18.9 18.5 12.9 68 3.4 SE 7 11 4 6 1022.9 - 0.0
16/09:30pm 18.0 17.7 12.7 71 3.0 SE 6 9 3 5 1022.8 - 0.0
16/09:00pm 20.0 19.0 12.3 61 4.4 S 9 11 5 6 1022.6 1022.4 0.0
16/08:30pm 19.1 19.9 12.6 66 3.7 CALM 0 0 0 0 1022.5 - 0.0
16/08:00pm 20.0 20.6 12.0 60 4.5 CALM 0 6 0 3 1022.3 - 0.0
16/07:30pm 21.4 22.0 12.0 55 5.3 CALM 0 0 0 0 1021.9 - 0.0
16/07:00pm 20.6 21.1 11.5 56 5.1 CALM 0 0 0 0 1021.9 - 0.0
16/06:30pm 22.1 22.5 11.2 50 6.1 CALM 0 0 0 0 1021.4 - 0.0
16/06:00pm 24.0 23.3 11.3 45 7.2 SE 6 7 3 4 1021.1 1020.9 0.0
16/05:30pm 25.2 23.1 11.0 41 8.1 S 13 17 7 9 1020.9 - 0.0
16/05:00pm 27.0 24.2 11.5 38 9.0 SSW 17 20 9 11 1021.1 - 0.0
16/04:30pm 28.5 26.9 11.6 35 9.9 SSW 11 15 6 8 1021.0 - 0.0
16/04:00pm 29.0 28.3 12.0 35 10.0 WNW 7 15 4 8 1020.9 - 0.0
16/03:30pm 28.9 27.7 11.5 34 10.2 WNW 9 17 5 9 1020.8 - 0.0
16/03:00pm 28.8 27.2 11.4 34 10.1 W 11 20 6 11 1021.0 1020.9 0.0
16/02:30pm 28.6 26.6 11.6 34 9.9 WSW 13 20 7 11 1021.3 - 0.0
16/02:00pm 28.7 26.2 12.2 36 9.7 WNW 17 26 9 14 1021.6 - 0.0
16/01:30pm 28.4 25.5 12.3 37 9.5 NW 19 24 10 13 1021.8 - 0.0
16/01:00pm 27.8 24.8 11.8 37 9.3 NNW 19 26 10 14 1022.2 - 0.0
16/12:30pm 28.1 25.1 12.4 37 9.3 NW 20 30 11 16 1022.7 - 0.0
16/12:00pm 28.4 25.8 13.1 39 9.1 NNW 19 28 10 15 1023.1 1022.9 0.0
16/11:30am 27.2 23.9 12.8 41 8.5 NNW 22 30 12 16 1023.4 - 0.0
16/11:00am 25.8 22.3 12.3 43 7.9 N 22 30 12 16 1023.7 - 0.0
16/10:30am 26.1 23.3 14.2 48 7.2 NNW 22 32 12 17 1023.8 - 0.0
16/10:00am 24.7 21.0 13.9 51 6.4 NNW 26 32 14 17 1024.1 - 0.0
16/09:30am 23.7 21.6 14.7 57 5.4 N 19 24 10 13 1024.2 - 0.0
16/09:00am 22.1 20.2 14.2 61 4.7 NNW 17 19 9 10 1024.5 1024.3 0.0
16/08:30am 20.9 19.6 14.8 68 3.6 N 15 20 8 11 1024.2 - 0.0
16/08:00am 19.7 18.0 13.6 68 3.5 N 15 17 8 9 1024.4 - 0.0
16/07:30am 18.8 18.2 14.5 76 2.5 N 11 13 6 7 1024.1 - 0.0
16/07:00am 16.5 15.0 13.0 80 2.0 N 13 15 7 8 1023.7 - 0.0
16/06:30am 17.0 14.6 12.7 76 2.4 N 17 19 9 10 1023.6 - 0.0
16/06:00am 17.8 15.2 13.3 75 2.6 N 19 22 10 12 1023.3 1023.1 0.0
16/05:30am 17.0 14.4 13.3 79 2.1 NNW 19 20 10 11 1023.2 - 0.0
16/05:00am 16.4 14.3 13.5 83 1.7 NW 17 19 9 10 1022.9 - 0.0
16/04:30am 14.8 13.7 13.0 89 1.0 N 11 15 6 8 1022.3 - 0.0
16/04:00am 14.3 13.8 12.7 90 0.9 NNW 7 9 4 5 1022.2 - 0.0
16/03:30am 13.6 12.5 11.8 89 1.0 NNW 9 13 5 7 1022.1 - 0.0
16/03:00am 13.7 14.1 11.2 85 1.3 CALM 0 0 0 0 1022.1 1021.9 0.0
16/02:30am 15.3 16.3 13.1 87 1.2 CALM 0 7 0 4 1022.2 - 0.0
16/02:00am 14.6 15.3 12.3 86 1.3 CALM 0 0 0 0 1022.5 - 0.0
16/01:30am 16.1 16.8 13.4 84 1.5 NNE 2 9 1 5 1022.8 - 0.0
16/01:00am 14.0 14.4 11.3 84 1.5 CALM 0 0 0 0 1022.8 - 0.0
16/12:30am 15.9 16.8 13.0 83 1.6 CALM 0 0 0 0 1022.8 - 0.0
16/12:00am 16.0 17.1 13.5 85 1.4 CALM 0 0 0 0 1022.9 1022.8 0.0
 
Date/Time
EST
Temp
°C
App
Temp
°C
Dew
Point
Rel
Hum
%
Delta-T
°C
Wind Press
QNH
hPa
Press
MSL
hPa
Rain
since 9 am
mm
Dir
 
Spd
km/h
Gust
km/h
Spd
kts
Gust
kts
15/11:30pm 15.1 15.8 12.1 82 1.7 CALM 0 0 0 0 1023.1 - 0.0

Other Formats:

Comma delimited format used in spreadsheet applications
http://www.bom.gov.au/fwo/IDN60801/IDN60801.95721.axf

JavaScript Object Notation format (JSON) in row-major order
http://www.bom.gov.au/fwo/IDN60801/IDN60801.95721.json